DW3800 Weather Reports


time (UTC)temp
F
wind
direction
speed
knots
gust
knots
rain 1hr
in
rain 24hr
in
rain mn
in
humidity
%
barometer
mb
20210122071939 7 315 0.0 0.0 0.00 0.00 0.00 68 1016.9
20210122071437 7 293 0.0 0.0 0.00 0.00 0.00 68 1016.9
20210122065835 7 315 7.0 7.0 0.00 0.00 0.00 68 1017.3
20210122064834 7 0 0.0 1.7 0.00 0.00 0.00 68 1017.3
20210122063834 8 338 0.0 0.0 0.00 0.00 0.00 68 1017.3
20210122063332 8 293 0.0 0.0 0.00 0.00 0.00 68 1016.9
20210122062831 8 270 0.0 0.0 0.00 0.00 0.00 68 1016.9
20210122062330 8 338 0.0 1.7 0.00 0.00 0.00 67 1016.9
20210122061830 8 338 0.0 3.5 0.00 0.00 0.00 67 1016.9
20210122054826 9 293 0.0 4.3 0.00 0.00 0.00 67 1016.6
20210122054325 9 315 0.0 0.0 0.00 0.00 0.00 67 1016.6
20210122053824 9 315 0.0 0.0 0.00 0.00 0.00 66 1016.6
20210122052823 9 293 0.0 5.2 0.00 0.00 0.00 66 1016.3
20210122051825 9 320 2.6 4.3 0.00 0.00 0.00 66 1016.3
20210122050820 10 315 0.0 3.5 0.00 0.00 0.00 66 1015.9
20210122050323 10 299 2.6 6.1 0.00 0.00 0.00 66 1015.9
20210122045317 10 293 6.1 6.1 0.00 0.00 0.00 66 1015.9
20210122044817 10 315 0.0 0.0 0.00 0.00 0.00 66 1015.9
20210122044316 10 315 0.0 4.3 0.00 0.00 0.00 66 1015.9
20210122043317 10 338 10.4 10.4 0.00 0.00 0.00 65 1015.6
20210122042813 11 315 5.2 5.2 0.00 0.00 0.00 65 1015.6
20210122042313 11 354 2.6 4.3 0.00 0.00 0.00 65 1015.6
20210122035308 11 293 1.7 2.6 0.00 0.00 0.00 65 1014.9
20210122033811 12 315 0.0 5.2 0.00 0.00 0.00 64 1014.9
20210122031805 13 338 1.7 1.7 0.00 0.00 0.00 64 1014.9
20210122030803 13 293 4.3 4.3 0.00 0.00 0.00 64 1014.6
20210122025801 13 315 0.0 1.7 0.00 0.00 0.00 64 1014.2
20210122024800 13 0 2.6 7.0 0.00 0.00 0.00 63 1014.2
20210122023758 14 338 0.0 0.0 0.00 0.00 0.00 64 1014.2
20210122023257 14 0 0.0 7.8 0.00 0.00 0.00 64 1014.2
20210122022757 14 315 0.0 7.8 0.00 0.00 0.00 64 1014.2
20210122021755 14 293 0.0 0.9 0.00 0.00 0.00 63 1013.9
20210122020754 15 0 0.0 0.0 0.00 0.00 0.00 63 1013.9
20210122020301 15 293 0.0 0.0 0.00 0.00 0.00 63 1013.9
20210122015754 15 270 0.0 0.0 0.00 0.00 0.00 63 1013.9
20210122014756 15 338 0.0 4.3 0.00 0.00 0.00 62 1013.5
20210122013749 16 315 0.0 4.3 0.00 0.00 0.00 62 1013.2
20210122011246 17 270 0.0 5.2 0.00 0.00 0.00 60 1012.5
20210122010745 17 270 3.5 5.2 0.00 0.00 0.00 60 1012.5
20210122004746 18 327 4.3 4.3 0.00 0.00 0.00 59 1012.2
20210122004241 18 283 1.7 6.1 0.00 0.00 0.00 58 1011.9
20210122003740 18 315 0.0 6.1 0.00 0.00 0.00 58 1011.9
20210122002242 19 293 6.1 8.7 0.00 0.00 0.00 58 1011.5
20210122001738 19 342 6.1 8.7 0.00 0.00 0.00 58 1011.5
20210122001237 19 328 3.5 5.2 0.00 0.00 0.00 58 1011.2
20210122000736 19 315 0.0 4.3 0.00 0.00 0.00 58 1011.2
20210121235740 20 293 0.0 6.1 0.00 0.00 0.00 58 1011.2
20210121234734 20 315 3.5 7.8 0.00 0.00 0.00 57 1010.8
20210121233733 20 337 1.7 7.0 0.00 0.00 0.00 57 1010.5
20210121232730 21 315 5.2 5.2 0.00 0.00 0.00 57 1010.5
20210121232231 21 338 2.6 2.6 0.00 0.00 0.00 56 1010.2
20210121231729 21 270 0.0 3.5 0.00 0.00 0.00 56 1010.2
20210121231229 21 315 0.0 3.5 0.00 0.00 0.00 55 1009.8
20210121225226 23 270 5.2 6.1 0.00 0.00 0.00 54 1009.5
20210121224726 23 314 3.5 7.8 0.00 0.00 0.00 54 1009.5
20210121224225 23 338 7.8 7.8 0.00 0.00 0.00 54 1009.1
20210121222722 25 320 4.3 5.2 0.00 0.00 0.00 53 1008.8
20210121221723 25 325 6.1 7.0 0.00 0.00 0.00 53 1008.8
20210121220721 26 248 0.9 7.0 0.00 0.00 0.00 52 1008.5
20210121220220 27 297 3.5 7.0 0.00 0.00 0.00 52 1008.5
20210121215717 27 352 4.3 6.1 0.00 0.00 0.00 53 1008.5
20210121214716 28 338 7.8 7.8 0.00 0.00 0.00 52 1008.1
20210121212713 29 338 7.0 7.0 0.00 0.00 0.00 53 1007.5
20210121212212 30 0 2.6 4.3 0.00 0.00 0.00 53 1007.5
20210121210713 31 293 7.0 7.0 0.00 0.00 0.00 52 1007.1
20210121210241 31 350 5.2 6.1 0.00 0.00 0.00 52 1006.8
20210121205708 32 293 2.6 7.8 0.00 0.00 0.00 52 1006.8
20210121204707 33 327 6.1 7.8 0.00 0.00 0.00 53 1006.4
20210121204209 34 293 6.1 6.1 0.00 0.00 0.00 53 1006.1
20210121201706 35 322 5.2 7.8 0.00 0.00 0.00 58 1005.8
20210121200701 35 215 3.5 6.1 0.00 0.00 0.00 59 1005.4
20210121195701 35 293 6.1 7.8 0.00 0.00 0.00 60 1005.4
20210121194659 34 315 3.5 9.6 0.00 0.00 0.00 63 1005.4
20210121194158 33 270 3.5 9.6 0.00 0.00 0.00 63 1005.1
20210121193657 33 296 4.3 6.1 0.00 0.00 0.00 64 1005.1
20210121193157 33 0 0.0 7.8 0.00 0.00 0.00 63 1005.4
20210121192156 33 263 2.6 11.3 0.00 0.00 0.00 62 1005.1
20210121191654 33 285 5.2 9.6 0.00 0.00 0.00 62 1005.1
20210121191154 33 267 4.3 7.0 0.00 0.00 0.00 62 1005.1
20210121190653 34 315 1.7 8.7 0.00 0.00 0.00 62 1005.1
20210121190152 34 341 5.2 8.7 0.00 0.00 0.00 62 1005.1
20210121185651 35 315 3.5 8.7 0.00 0.00 0.00 62 1005.1
20210121183151 34 315 0.0 8.7 0.00 0.00 0.00 65 1004.7
20210121181146 34 318 2.6 7.0 0.00 0.00 0.00 65 1005.1
20210121180645 34 293 7.0 7.0 0.00 0.00 0.00 65 1005.1
20210121175646 34 270 0.0 9.6 0.00 0.00 0.00 66 1005.1
20210121174643 35 315 0.0 5.2 0.00 0.00 0.00 65 1005.1
20210121173640 35 315 0.0 8.7 0.00 0.00 0.00 65 1005.1
20210121172641 36 286 4.3 6.1 0.00 0.00 0.00 64 1004.7
20210121171138 36 0 0.0 11.3 0.00 0.00 0.00 64 1004.7
20210121170637 36 315 10.4 10.4 0.00 0.00 0.00 64 1004.7
20210121170136 36 324 3.5 6.1 0.00 0.00 0.00 64 1004.7
20210121165636 36 315 4.3 6.1 0.00 0.00 0.00 65 1004.7
20210121165135 36 270 0.0 7.8 0.00 0.00 0.00 65 1004.4
20210121164634 36 338 7.8 7.8 0.00 0.00 0.00 65 1004.4
20210121164135 36 338 3.5 7.8 0.00 0.00 0.00 67 1004.4
20210121163632 35 315 7.8 7.8 0.00 0.00 0.00 67 1004.7
20210121161632 34 270 6.1 6.1 0.00 0.00 0.00 68 1004.4
20210121161131 34 293 1.7 2.6 0.00 0.00 0.00 68 1004.4
20210121160630 33 293 0.0 7.0 0.00 0.00 0.00 69 1004.7
20210121155627 33 293 5.2 7.0 0.00 0.00 0.00 69 1004.4
20210121155126 33 315 0.9 6.1 0.00 0.00 0.00 70 1004.4
20210121154124 32 315 3.5 10.4 0.00 0.00 0.00 70 1004.4
20210121151122 32 270 1.7 6.1 0.00 0.00 0.00 70 1004.1
20210121150620 31 315 0.0 0.9 0.00 0.00 0.00 71 1003.7
20210121145120 30 338 0.0 0.0 0.00 0.00 0.00 71 1003.4
20210121144119 29 248 0.0 0.0 0.00 0.00 0.00 71 1003.4
20210121143624 29 270 0.0 0.0 0.00 0.00 0.00 71 1003.4
20210121143118 29 315 0.0 0.0 0.00 0.00 0.00 71 1003.4
20210121142616 29 293 0.0 0.0 0.00 0.00 0.00 71 1003.4
20210121140611 29 270 0.0 4.3 0.00 0.00 0.00 71 1003.0
20210121135110 29 270 0.0 4.3 0.00 0.00 0.00 71 1002.7
20210121134109 29 338 0.0 2.6 0.00 0.00 0.00 70 1002.4
20210121133609 29 315 0.0 0.0 0.00 0.00 0.00 70 1002.7
20210121132106 30 270 0.0 5.2 0.00 0.00 0.00 70 1002.4
20210121131604 30 351 4.3 5.2 0.00 0.00 0.00 70 1002.4
20210121131103 30 293 2.6 5.2 0.00 0.00 0.00 70 1002.4
20210121130602 30 293 5.2 5.2 0.00 0.00 0.00 69 1002.4
20210121130103 30 315 4.3 4.3 0.00 0.00 0.00 69 1002.4
20210121125102 30 270 0.0 4.3 0.00 0.00 0.00 69 1002.4
20210121124600 30 293 0.9 4.3 0.00 0.00 0.00 69 1002.4
20210121123558 30 270 0.0 4.3 0.00 0.00 0.00 69 1002.0
20210121123057 30 293 4.3 4.3 0.00 0.00 0.00 68 1002.0
20210121121112 31 293 3.5 6.1 0.00 0.00 0.00 68 1002.0
20210121120726 31 199 4.3 6.1 0.00 0.00 0.00 68 1002.0
20210121115555 31 293 0.0 0.0 0.00 0.00 0.00 67 1002.0
20210121115057 31 270 0.0 5.2 0.00 0.00 0.00 67 1002.0
20210121113550 31 270 0.0 7.0 0.00 0.00 0.00 67 1002.0
20210121113049 32 315 5.2 7.0 0.00 0.00 0.00 67 1002.0
20210121112049 32 270 0.0 0.9 0.00 0.00 0.00 67 1002.0
20210121111054 32 270 0.0 4.3 0.00 0.00 0.00 67 1001.7
20210121105043 31 293 3.5 3.5 0.00 0.00 0.00 67 1002.0
20210121104042 31 270 0.0 2.6 0.00 0.00 0.00 68 1001.7
20210121103541 31 293 0.0 2.6 0.00 0.00 0.00 68 1001.7
20210121102542 31 270 0.0 0.0 0.00 0.00 0.00 69 1002.0
20210121101539 31 248 2.6 2.6 0.00 0.00 0.00 69 1001.7
20210121101037 31 270 2.6 2.6 0.00 0.00 0.00 69 1002.0
20210121100047 31 270 0.0 6.1 0.00 0.00 0.00 69 1002.0
20210121095535 31 293 0.0 6.1 0.00 0.00 0.00 69 1002.4
20210121093535 31 293 3.5 3.5 0.00 0.00 0.00 69 1002.4
20210121092038 31 315 4.3 4.3 0.00 0.00 0.00 70 1002.4
20210121084541 31 270 1.7 1.7 0.00 0.00 0.00 70 1002.4
20210121084032 31 270 0.0 0.0 0.00 0.00 0.00 70 1002.4
20210121083526 31 270 0.0 0.0 0.00 0.00 0.00 70 1002.4
20210121083048 31 248 0.0 0.0 0.00 0.00 0.00 70 1002.0
20210121082524 31 270 0.0 0.0 0.00 0.00 0.00 70 1002.4
20210121082035 31 338 0.0 2.6 0.00 0.00 0.00 70 1002.4
20210121081022 31 270 0.0 0.0 0.00 0.00 0.00 70 1002.4
20210121080521 31 270 0.0 0.0 0.00 0.00 0.00 70 1002.4
20210121080033 31 293 0.0 0.0 0.00 0.00 0.00 70 1002.0
20210121074026 32 270 0.0 0.0 0.00 0.00 0.00 69 1002.0